Time;durP1;ratioP1;P1;durP2;ratioP2;P2;SDS_P1;SDS_P2;PMS_P1;PMS_P2;Temp;Humidity;BMP_temperature;BMP_pressure;BME280_temperature;BME280_humidity;BME280_pressure;Samples;Min_cycle;Max_cycle;Signal;HPM_P1;HPM_P2
2022/08/15 00:01:09;;;;;;;5.67;5.17;;;22.20;91.20;;;;;;4906768;28;20450;-83
2022/08/15 00:03:48;;;;;;;6.20;5.60;;;22.10;92.40;;;;;;4916991;28;20267;-83
2022/08/15 00:06:17;;;;;;;6.37;5.87;;;22.00;94.30;;;;;;4909230;28;20918;-82
2022/08/15 00:08:47;;;;;;;6.50;5.90;;;21.80;96.00;;;;;;4909630;28;20961;-83
2022/08/15 00:11:26;;;;;;;6.30;5.77;;;21.70;98.00;;;;;;4905204;28;20509;-82
2022/08/15 00:13:58;;;;;;;6.93;5.73;;;21.60;99.70;;;;;;4912973;28;20446;-82
2022/08/15 00:16:24;;;;;;;7.50;5.80;;;21.50;99.90;;;;;;4903832;28;20448;-83
2022/08/15 00:18:49;;;;;;;6.20;5.70;;;21.40;99.90;;;;;;4901175;28;20774;-83
2022/08/15 00:21:19;;;;;;;6.63;6.00;;;21.30;99.90;;;;;;4906734;28;20227;-82
2022/08/15 00:23:44;;;;;;;6.83;5.90;;;21.20;99.90;;;;;;4906783;28;20298;-82
2022/08/15 00:26:11;;;;;;;7.23;6.63;;;21.10;99.90;;;;;;4910033;28;20486;-83
2022/08/15 00:28:37;;;;;;;5.87;5.47;;;21.00;99.90;;;;;;4917866;28;21194;-82
2022/08/15 00:31:08;;;;;;;6.97;6.30;;;21.00;99.90;;;;;;4921244;28;20462;-83
2022/08/15 00:33:34;;;;;;;6.00;5.60;;;20.90;99.90;;;;;;4923343;28;20178;-83
2022/08/15 00:35:59;;;;;;;6.73;6.13;;;20.90;99.90;;;;;;4909024;28;20492;-83
2022/08/15 00:38:28;;;;;;;7.57;6.93;;;20.90;99.90;;;;;;4903655;28;20537;-83
2022/08/15 00:43:52;;;;;;;6.43;5.93;;;21.00;99.90;;;;;;4922611;28;20666;-83
2022/08/15 00:46:18;;;;;;;6.70;6.10;;;21.00;99.90;;;;;;4923599;28;20476;-82
2022/08/15 00:48:44;;;;;;;5.87;5.47;;;21.10;99.90;;;;;;4903079;28;20474;-82
2022/08/15 00:51:28;;;;;;;9.00;6.07;;;21.00;99.90;;;;;;4909066;28;20458;-83
2022/08/15 00:53:57;;;;;;;7.50;5.60;;;21.10;99.90;;;;;;4901099;28;20455;-83
2022/08/15 00:56:28;;;;;;;6.33;5.83;;;21.10;99.90;;;;;;4905637;28;21038;-82
2022/08/15 00:58:54;;;;;;;6.13;5.63;;;21.10;99.90;;;;;;4900500;28;20596;-83
2022/08/15 01:01:22;;;;;;;5.80;5.30;;;21.10;99.90;;;;;;4904608;28;20443;-83
2022/08/15 01:03:48;;;;;;;6.37;5.80;;;21.10;99.90;;;;;;4898818;28;20561;-83
2022/08/15 01:06:15;;;;;;;6.77;6.17;;;21.10;99.90;;;;;;4928070;28;20514;-84
2022/08/15 01:08:45;;;;;;;6.63;6.03;;;21.10;99.90;;;;;;4906436;28;20438;-82
2022/08/15 01:11:34;;;;;;;6.03;5.53;;;21.10;99.90;;;;;;4906508;28;20545;-83
2022/08/15 01:14:01;;;;;;;9.83;6.57;;;21.00;99.90;;;;;;4910284;28;20450;-83
2022/08/15 01:16:28;;;;;;;6.33;5.67;;;21.00;99.90;;;;;;4913993;28;22291;-83
2022/08/15 01:18:55;;;;;;;6.67;5.80;;;21.00;99.90;;;;;;4929018;28;20567;-82
2022/08/15 01:21:42;;;;;;;6.80;6.20;;;21.00;99.90;;;;;;4918014;28;20474;-83
2022/08/15 01:24:46;;;;;;;7.07;5.50;;;21.00;99.90;;;;;;4917083;28;20450;-83
2022/08/15 01:27:13;;;;;;;6.07;5.47;;;21.00;99.90;;;;;;4927415;28;20442;-83
2022/08/15 01:29:39;;;;;;;6.23;5.63;;;21.00;99.90;;;;;;4904200;28;20447;-82
2022/08/15 01:32:05;;;;;;;5.30;4.97;;;20.90;99.90;;;;;;4903621;28;20446;-82
2022/08/15 01:34:31;;;;;;;6.33;5.23;;;20.80;99.90;;;;;;4905675;28;21051;-82
2022/08/15 01:36:57;;;;;;;7.60;5.60;;;20.80;99.90;;;;;;4926767;28;20668;-83
2022/08/15 01:39:29;;;;;;;5.40;4.90;;;20.80;99.90;;;;;;4933017;28;20278;-83
2022/08/15 01:42:21;;;;;;;6.07;5.47;;;20.80;99.90;;;;;;4927479;28;20529;-83
2022/08/15 01:45:07;;;;;;;5.63;5.00;;;20.80;99.90;;;;;;4912885;28;20462;-83
2022/08/15 01:47:38;;;;;;;6.03;5.43;;;20.80;99.90;;;;;;4936798;28;20466;-83
2022/08/15 01:50:09;;;;;;;6.00;5.10;;;20.90;99.90;;;;;;4927558;28;20443;-83
2022/08/15 01:52:58;;;;;;;5.63;5.13;;;20.90;99.90;;;;;;4910568;28;20450;-83
2022/08/15 01:55:30;;;;;;;5.90;5.50;;;20.90;99.90;;;;;;4899794;28;20466;-83
2022/08/15 01:57:56;;;;;;;5.93;5.43;;;20.80;99.90;;;;;;4907114;28;21874;-82
2022/08/15 02:00:22;;;;;;;5.10;4.70;;;20.80;99.90;;;;;;4913698;28;20457;-83
2022/08/15 02:02:49;;;;;;;5.20;4.70;;;20.80;99.90;;;;;;4933261;28;20189;-84
2022/08/15 02:05:16;;;;;;;5.87;5.27;;;20.70;99.90;;;;;;4911056;28;20978;-83
2022/08/15 02:07:42;;;;;;;5.13;4.70;;;20.80;99.90;;;;;;4912721;28;20439;-83
2022/08/15 02:10:09;;;;;;;5.60;5.20;;;20.90;99.90;;;;;;4911705;28;20467;-82
2022/08/15 02:12:40;;;;;;;5.30;5.00;;;20.90;99.90;;;;;;4913779;28;20446;-83
2022/08/15 02:15:13;;;;;;;5.97;5.47;;;20.90;99.90;;;;;;4925942;28;20966;-82
2022/08/15 02:17:40;;;;;;;4.70;4.40;;;20.90;99.90;;;;;;4911162;28;20662;-83
2022/08/15 02:20:06;;;;;;;4.90;4.50;;;20.90;99.90;;;;;;4910389;28;20458;-83
2022/08/15 02:22:32;;;;;;;5.67;5.17;;;20.90;99.90;;;;;;4907853;28;20450;-83
2022/08/15 02:24:59;;;;;;;4.77;4.47;;;21.10;99.90;;;;;;4922788;28;20442;-83
2022/08/15 02:27:27;;;;;;;4.93;4.53;;;21.00;99.90;;;;;;4908350;28;20552;-83
2022/08/15 02:29:53;;;;;;;5.53;4.40;;;21.10;99.90;;;;;;4921757;28;20462;-83
2022/08/15 02:32:19;;;;;;;5.37;4.70;;;21.10;99.90;;;;;;4905711;28;21147;-83
2022/08/15 02:34:47;;;;;;;6.03;4.80;;;21.10;99.90;;;;;;4923149;28;20282;-83
2022/08/15 02:37:18;;;;;;;5.30;4.80;;;21.10;99.90;;;;;;4925218;28;20454;-83
2022/08/15 02:39:45;;;;;;;4.70;4.30;;;21.00;99.90;;;;;;4909460;28;20453;-82
2022/08/15 02:42:11;;;;;;;5.43;4.90;;;21.00;99.90;;;;;;4925807;28;20727;-83
2022/08/15 02:44:37;;;;;;;5.00;4.60;;;20.90;99.90;;;;;;4928872;28;20446;-83
2022/08/15 02:47:03;;;;;;;4.97;4.23;;;20.80;99.90;;;;;;4912503;28;20446;-83
2022/08/15 02:49:28;;;;;;;5.07;4.37;;;20.80;99.90;;;;;;4908054;28;20585;-83
2022/08/15 02:51:55;;;;;;;4.70;4.30;;;20.80;99.90;;;;;;4912912;28;20237;-83
2022/08/15 02:54:23;;;;;;;4.97;4.53;;;20.80;99.90;;;;;;4908940;28;20184;-83
2022/08/15 02:56:49;;;;;;;5.10;4.63;;;20.80;99.90;;;;;;4909395;28;21061;-83
2022/08/15 02:59:14;;;;;;;5.37;4.83;;;20.80;99.90;;;;;;4925800;28;20534;-83
2022/08/15 03:01:42;;;;;;;6.37;5.07;;;20.70;99.90;;;;;;4909383;28;20189;-83
2022/08/15 03:04:13;;;;;;;5.37;4.73;;;20.70;99.90;;;;;;4907174;28;20184;-82
2022/08/15 03:06:38;;;;;;;6.37;4.60;;;20.70;99.90;;;;;;4915607;28;20439;-82
2022/08/15 03:09:07;;;;;;;5.40;4.87;;;20.60;99.90;;;;;;4910589;28;20447;-83
2022/08/15 03:11:38;;;;;;;4.90;4.50;;;20.60;99.90;;;;;;4909026;28;20183;-82
2022/08/15 03:14:07;;;;;;;5.07;4.57;;;20.60;99.90;;;;;;4910351;28;20980;-83
2022/08/15 03:16:38;;;;;;;8.77;5.30;;;20.70;99.90;;;;;;4924243;28;20488;-83
2022/08/15 03:19:04;;;;;;;5.33;4.83;;;20.60;99.90;;;;;;4902962;28;21032;-82
2022/08/15 03:21:30;;;;;;;5.20;4.70;;;20.60;99.90;;;;;;4913086;28;20448;-82
2022/08/15 03:23:55;;;;;;;4.63;4.23;;;20.60;99.90;;;;;;4907235;28;20266;-82
2022/08/15 03:26:33;;;;;;;5.07;4.67;;;20.60;99.90;;;;;;4907915;28;20198;-82
2022/08/15 03:28:59;;;;;;;4.80;4.40;;;20.60;99.90;;;;;;4909910;28;20269;-81
2022/08/15 03:31:27;;;;;;;5.30;4.50;;;20.50;99.90;;;;;;4922875;28;20447;-82
2022/08/15 03:33:52;;;;;;;6.43;4.80;;;20.50;99.90;;;;;;4907574;28;20975;-82
2022/08/15 03:36:21;;;;;;;5.07;4.50;;;20.40;99.90;;;;;;4911701;28;20490;-82
2022/08/15 03:38:47;;;;;;;4.80;4.40;;;20.30;99.90;;;;;;4916758;28;20920;-81
2022/08/15 03:41:15;;;;;;;4.20;3.90;;;20.30;99.90;;;;;;4907023;28;20864;-82
2022/08/15 03:43:43;;;;;;;4.37;4.07;;;20.30;99.90;;;;;;4903054;28;20911;-82
2022/08/15 03:46:11;;;;;;;5.60;5.13;;;20.30;99.90;;;;;;4921836;28;20488;-82
2022/08/15 03:48:47;;;;;;;5.83;4.60;;;20.30;99.90;;;;;;4907956;28;21033;-82
2022/08/15 03:51:14;;;;;;;5.77;4.43;;;20.30;99.90;;;;;;4910539;28;20491;-82
2022/08/15 03:53:45;;;;;;;4.93;4.43;;;20.20;99.90;;;;;;4912031;28;20461;-84
2022/08/15 03:56:18;;;;;;;5.20;4.80;;;20.30;99.90;;;;;;4907613;28;20482;-83
2022/08/15 03:58:45;;;;;;;4.63;4.23;;;20.20;99.90;;;;;;4925187;28;21018;-83
2022/08/15 04:01:18;;;;;;;5.70;5.13;;;20.20;99.90;;;;;;4928558;28;20916;-84
2022/08/15 04:03:51;;;;;;;5.10;4.70;;;20.30;99.90;;;;;;4921632;28;20540;-85
2022/08/15 04:06:19;;;;;;;7.07;4.60;;;20.30;99.90;;;;;;4901115;28;24737;-84
2022/08/15 04:08:47;;;;;;;4.70;4.40;;;20.30;99.90;;;;;;4920248;28;20447;-83
2022/08/15 04:11:14;;;;;;;4.77;4.37;;;20.20;99.90;;;;;;4903799;28;20449;-83
2022/08/15 04:13:41;;;;;;;5.37;4.93;;;20.20;99.90;;;;;;4914072;28;20442;-83
2022/08/15 04:16:08;;;;;;;5.17;4.67;;;20.10;99.90;;;;;;4917196;28;20478;-84
2022/08/15 04:18:34;;;;;;;4.73;4.30;;;20.00;99.90;;;;;;4905590;28;21030;-83
2022/08/15 04:21:03;;;;;;;5.73;5.20;;;20.00;99.90;;;;;;4909408;28;20516;-83
2022/08/15 04:23:29;;;;;;;5.10;4.60;;;20.00;99.90;;;;;;4924114;28;20426;-84
2022/08/15 04:25:55;;;;;;;4.50;4.20;;;20.00;99.90;;;;;;4901526;28;20446;-84
2022/08/15 04:28:22;;;;;;;4.60;4.20;;;20.00;99.90;;;;;;4928103;28;20461;-83
2022/08/15 04:30:49;;;;;;;5.10;4.60;;;19.90;99.90;;;;;;4913322;28;20662;-84
2022/08/15 04:33:21;;;;;;;4.17;3.87;;;20.00;99.90;;;;;;4933022;28;20459;-84
2022/08/15 04:36:02;;;;;;;5.07;4.60;;;19.90;99.90;;;;;;4930384;28;21216;-84
2022/08/15 04:38:28;;;;;;;4.10;3.80;;;19.90;99.90;;;;;;4897758;28;20447;-83
2022/08/15 04:40:54;;;;;;;7.13;4.43;;;19.90;99.90;;;;;;4917866;28;20478;-83
2022/08/15 04:43:22;;;;;;;5.80;4.00;;;19.90;99.90;;;;;;4900496;28;20555;-83
2022/08/15 04:45:49;;;;;;;5.47;4.37;;;19.90;99.90;;;;;;4897241;28;20860;-83
2022/08/15 04:48:16;;;;;;;4.47;4.07;;;19.90;99.90;;;;;;4916951;28;20443;-83
2022/08/15 04:50:44;;;;;;;4.90;4.50;;;19.90;99.90;;;;;;4908276;28;20455;-83
2022/08/15 04:53:11;;;;;;;4.43;4.03;;;19.90;99.90;;;;;;4905859;28;20453;-83
2022/08/15 04:55:41;;;;;;;4.90;4.50;;;19.90;99.90;;;;;;4912124;28;20470;-82
2022/08/15 04:58:10;;;;;;;4.73;4.33;;;19.80;99.90;;;;;;4912008;28;20447;-83
2022/08/15 05:00:40;;;;;;;3.77;3.47;;;19.90;99.90;;;;;;4898198;28;20449;-83
2022/08/15 05:03:16;;;;;;;4.10;3.70;;;19.90;99.90;;;;;;4911490;28;20451;-84
2022/08/15 05:05:49;;;;;;;4.17;3.83;;;19.90;99.90;;;;;;4898304;28;20508;-84
2022/08/15 05:08:15;;;;;;;4.17;3.87;;;19.90;99.90;;;;;;4911787;28;20503;-84
2022/08/15 05:10:44;;;;;;;4.23;3.70;;;19.90;99.90;;;;;;4900618;28;20446;-84
2022/08/15 05:13:13;;;;;;;5.67;3.80;;;20.00;99.90;;;;;;4893255;28;20457;-83
2022/08/15 05:15:40;;;;;;;5.03;3.53;;;19.90;99.90;;;;;;4901570;28;20484;-84
2022/08/15 05:18:06;;;;;;;4.57;3.90;;;19.90;99.90;;;;;;4893983;28;20450;-83
2022/08/15 05:20:32;;;;;;;4.50;4.10;;;19.90;99.90;;;;;;4901258;28;22539;-83
2022/08/15 05:23:04;;;;;;;3.90;3.60;;;19.90;99.90;;;;;;4900233;28;20252;-83
2022/08/15 05:25:40;;;;;;;4.07;3.70;;;19.80;99.90;;;;;;4919086;28;20194;-82
2022/08/15 05:28:06;;;;;;;4.37;3.97;;;19.80;99.90;;;;;;4900025;28;20953;-84
2022/08/15 05:30:33;;;;;;;4.17;3.40;;;19.90;99.90;;;;;;4896551;28;20972;-83
2022/08/15 05:33:13;;;;;;;7.30;4.30;;;19.90;99.90;;;;;;4901853;28;20346;-83
2022/08/15 05:36:37;;;;;;;3.83;3.53;;;19.90;99.90;;;;;;4900406;28;20611;-83
2022/08/15 05:39:24;;;;;;;3.73;3.40;;;19.80;99.90;;;;;;4910563;28;20821;-82
2022/08/15 05:42:27;;;;;;;3.50;3.20;;;19.90;99.90;;;;;;4908935;29;20443;-82
2022/08/15 05:45:08;;;;;;;3.60;2.80;;;20.00;99.90;;;;;;4906268;28;20502;-84
2022/08/15 05:48:00;;;;;;;4.33;3.70;;;20.00;99.90;;;;;;4925589;28;20451;-85
2022/08/15 05:50:36;;;;;;;3.10;2.90;;;20.00;99.90;;;;;;4911678;28;20549;-85
2022/08/15 05:53:38;;;;;;;3.30;3.10;;;20.00;99.90;;;;;;4913087;28;20442;-84
2022/08/15 05:56:14;;;;;;;3.63;3.33;;;20.00;99.90;;;;;;4920312;28;20482;-83
2022/08/15 05:58:45;;;;;;;5.00;3.70;;;20.00;99.90;;;;;;4909983;28;20438;-83
2022/08/15 06:01:37;;;;;;;3.97;3.67;;;20.00;99.90;;;;;;4923822;28;20442;-84
2022/08/15 06:04:27;;;;;;;3.33;3.10;;;20.00;99.90;;;;;;4899405;28;20965;-83
2022/08/15 06:06:55;;;;;;;4.53;3.23;;;20.10;99.90;;;;;;4926938;28;20510;-84
2022/08/15 06:09:41;;;;;;;3.20;3.00;;;20.10;99.90;;;;;;4922656;28;20926;-84
2022/08/15 06:12:16;;;;;;;3.97;3.50;;;20.10;99.90;;;;;;4907608;28;20831;-83
2022/08/15 06:14:46;;;;;;;4.03;3.67;;;20.10;99.90;;;;;;4922811;28;20704;-83
2022/08/15 06:17:34;;;;;;;3.40;3.10;;;20.10;99.90;;;;;;4915401;28;20449;-83
2022/08/15 06:20:06;;;;;;;3.13;2.83;;;20.10;99.90;;;;;;4914635;28;20528;-83
2022/08/15 06:22:50;;;;;;;3.57;3.27;;;20.10;99.90;;;;;;4914963;29;20458;-84
2022/08/15 06:25:31;;;;;;;4.33;3.30;;;20.20;99.90;;;;;;4912665;28;20451;-83
2022/08/15 06:28:36;;;;;;;6.13;3.87;;;20.30;99.90;;;;;;4912198;28;20493;-84
2022/08/15 06:31:22;;;;;;;3.83;3.53;;;20.30;99.90;;;;;;4902915;28;20450;-84
2022/08/15 06:34:06;;;;;;;4.33;3.10;;;20.20;99.90;;;;;;4909604;28;20501;-83
2022/08/15 06:37:11;;;;;;;4.30;3.87;;;20.20;99.90;;;;;;4913884;28;20488;-84
2022/08/15 06:40:02;;;;;;;3.67;3.30;;;20.10;99.90;;;;;;4929325;28;20447;-83
2022/08/15 06:42:35;;;;;;;3.83;3.47;;;19.90;99.90;;;;;;4913474;28;21133;-83
2022/08/15 06:45:06;;;;;;;4.10;3.20;;;19.80;99.90;;;;;;4926885;28;20453;-84
2022/08/15 06:47:32;;;;;;;4.40;3.10;;;19.80;99.90;;;;;;4919977;28;20444;-84
2022/08/15 06:50:14;;;;;;;5.40;3.50;;;19.90;99.90;;;;;;4939598;28;20442;-84
2022/08/15 06:52:48;;;;;;;3.47;3.27;;;20.00;99.90;;;;;;4928035;28;20498;-83
2022/08/15 06:55:14;;;;;;;3.30;3.10;;;20.20;99.90;;;;;;4910563;29;20490;-84
2022/08/15 06:58:10;;;;;;;5.30;3.43;;;20.40;99.90;;;;;;4917552;28;20521;-84
2022/08/15 07:01:02;;;;;;;4.30;2.87;;;20.30;99.90;;;;;;4912829;28;20204;-84
2022/08/15 07:03:47;;;;;;;3.70;3.40;;;20.20;99.90;;;;;;4905895;28;20526;-83
2022/08/15 07:06:16;;;;;;;3.30;3.07;;;20.30;99.90;;;;;;4896807;28;20498;-84
2022/08/15 07:08:45;;;;;;;4.60;2.80;;;20.40;99.90;;;;;;4909250;28;20443;-84
2022/08/15 07:11:31;;;;;;;3.00;2.80;;;20.60;99.90;;;;;;4913152;28;20525;-83
2022/08/15 07:14:06;;;;;;;3.10;2.90;;;20.70;99.90;;;;;;4915359;28;21066;-83
2022/08/15 07:17:05;;;;;;;3.33;3.13;;;20.50;99.90;;;;;;4922335;28;21111;-83
2022/08/15 07:19:31;;;;;;;3.47;3.17;;;20.70;99.90;;;;;;4911092;28;20447;-84
2022/08/15 07:21:57;;;;;;;3.03;2.83;;;20.90;99.90;;;;;;4911904;28;20454;-83
2022/08/15 07:24:40;;;;;;;3.13;2.93;;;21.20;99.90;;;;;;4908747;28;20195;-82
2022/08/15 07:27:20;;;;;;;3.20;2.83;;;21.40;99.90;;;;;;4915018;28;21482;-83
2022/08/15 07:29:54;;;;;;;2.70;2.50;;;21.50;99.90;;;;;;4906658;28;20454;-83
2022/08/15 07:32:44;;;;;;;2.30;2.10;;;21.60;99.90;;;;;;4907574;28;20529;-83
2022/08/15 07:35:12;;;;;;;3.00;2.80;;;21.70;99.90;;;;;;4921453;28;20469;-83
2022/08/15 07:37:48;;;;;;;3.43;2.30;;;21.80;99.90;;;;;;4925585;28;20453;-83
2022/08/15 07:40:31;;;;;;;2.80;2.60;;;21.90;99.80;;;;;;4913002;28;20454;-83
2022/08/15 07:42:58;;;;;;;2.40;2.30;;;22.00;99.80;;;;;;4918024;28;20446;-83
2022/08/15 07:45:31;;;;;;;2.47;2.27;;;22.20;99.20;;;;;;4909313;28;21001;-83
2022/08/15 07:48:21;;;;;;;2.70;2.50;;;22.40;98.70;;;;;;4923633;28;20482;-83
2022/08/15 07:51:05;;;;;;;2.10;1.80;;;22.40;97.80;;;;;;4912572;28;20442;-84
2022/08/15 07:53:31;;;;;;;2.40;2.30;;;22.10;97.60;;;;;;4911973;28;21287;-83
2022/08/15 07:56:03;;;;;;;2.60;2.33;;;21.90;97.90;;;;;;4913042;28;20478;-83
2022/08/15 07:58:29;;;;;;;2.00;1.90;;;21.80;98.00;;;;;;4921314;28;20466;-83
2022/08/15 08:01:08;;;;;;;2.70;2.40;;;21.60;98.80;;;;;;4907077;28;20439;-83
2022/08/15 08:03:35;;;;;;;2.47;2.20;;;21.60;99.70;;;;;;4912497;28;20435;-83
2022/08/15 08:06:14;;;;;;;2.83;2.63;;;21.90;99.70;;;;;;4912772;28;20453;-85
2022/08/15 08:08:47;;;;;;;3.03;2.60;;;22.00;99.10;;;;;;4909740;28;20964;-83
2022/08/15 08:11:22;;;;;;;2.33;2.13;;;22.00;99.10;;;;;;4907973;28;20452;-84
2022/08/15 08:14:00;;;;;;;2.63;2.33;;;21.90;99.10;;;;;;4937009;28;20512;-84
2022/08/15 08:16:31;;;;;;;3.70;2.20;;;21.80;98.90;;;;;;4927847;28;21368;-84
2022/08/15 08:19:16;;;;;;;2.40;2.20;;;22.00;98.60;;;;;;4932938;28;20936;-83
2022/08/15 08:22:23;;;;;;;2.43;1.90;;;21.90;98.30;;;;;;4909862;28;20454;-87
2022/08/15 08:25:29;;;;;;;1.80;1.70;;;22.20;97.70;;;;;;4897693;29;20550;-88
2022/08/15 08:28:32;;;;;;;2.20;1.90;;;22.10;97.50;;;;;;4925169;28;20485;-88
2022/08/15 08:31:28;;;;;;;1.93;1.80;;;22.00;97.30;;;;;;4936446;28;20482;-87
2022/08/15 08:34:24;;;;;;;1.87;1.77;;;22.00;97.70;;;;;;4941614;28;20450;-89
2022/08/15 08:37:56;;;;;;;2.03;1.90;;;22.00;97.50;;;;;;4943004;28;20514;-88
2022/08/15 08:44:14;;;;;;;2.00;1.63;;;22.10;97.10;;;;;;4864328;29;20495;-88
2022/08/15 08:50:04;;;;;;;2.10;1.90;;;22.50;96.80;;;;;;4883667;29;20979;-87
2022/08/15 08:53:17;;;;;;;2.03;1.83;;;22.80;96.00;;;;;;4910081;28;20450;-88
2022/08/15 08:55:56;;;;;;;2.10;1.90;;;23.10;95.00;;;;;;4928261;28;20478;-87
2022/08/15 08:58:39;;;;;;;2.07;1.93;;;23.00;95.30;;;;;;4926319;28;20446;-87
2022/08/15 09:01:21;;;;;;;2.40;2.20;;;23.00;94.40;;;;;;4900534;28;20458;-88
2022/08/15 09:03:58;;;;;;;4.53;2.07;;;23.30;94.80;;;;;;4907188;28;20446;-87
2022/08/15 09:06:33;;;;;;;2.20;2.10;;;23.40;94.60;;;;;;4912480;28;20499;-87
2022/08/15 09:09:26;;;;;;;2.00;1.90;;;23.20;93.40;;;;;;4926552;28;20454;-87
2022/08/15 09:12:02;;;;;;;2.13;1.87;;;23.00;94.10;;;;;;4899531;28;20561;-86
2022/08/15 09:14:37;;;;;;;2.00;1.90;;;23.10;93.50;;;;;;4909376;28;20458;-86
2022/08/15 09:17:12;;;;;;;2.23;2.10;;;23.20;93.60;;;;;;4926182;28;21255;-87
2022/08/15 09:19:56;;;;;;;2.13;2.03;;;23.70;92.70;;;;;;4906553;28;20438;-88
2022/08/15 09:22:31;;;;;;;3.10;1.80;;;24.20;92.00;;;;;;4913417;28;20451;-88
2022/08/15 09:24:59;;;;;;;1.90;1.80;;;24.10;91.30;;;;;;4907443;28;20950;-88
2022/08/15 09:27:46;;;;;;;2.40;2.20;;;24.20;91.90;;;;;;4911823;28;20526;-89
2022/08/15 09:30:13;;;;;;;2.80;2.60;;;24.50;90.90;;;;;;4907312;28;20449;-87
2022/08/15 09:33:12;;;;;;;2.30;2.10;;;24.50;91.20;;;;;;4922302;28;20453;-89
2022/08/15 09:35:53;;;;;;;2.13;2.00;;;24.90;90.30;;;;;;4904768;28;20619;-88
2022/08/15 09:38:42;;;;;;;2.40;2.20;;;25.00;89.80;;;;;;4906965;28;20793;-88
2022/08/15 09:41:42;;;;;;;2.20;2.10;;;25.10;87.90;;;;;;4920167;28;20815;-88
2022/08/15 09:44:20;;;;;;;2.10;1.90;;;24.90;88.40;;;;;;4924740;28;20527;-88
2022/08/15 09:47:23;;;;;;;2.40;2.30;;;24.70;87.50;;;;;;4910009;28;20443;-88
2022/08/15 09:50:18;;;;;;;2.00;1.90;;;24.50;87.20;;;;;;4908730;28;20454;-88
2022/08/15 09:53:26;;;;;;;2.40;2.20;;;24.80;87.20;;;;;;4928301;28;20986;-88
2022/08/15 09:56:03;;;;;;;2.20;2.10;;;24.80;83.30;;;;;;4900831;28;20525;-88
2022/08/15 09:58:37;;;;;;;2.33;2.13;;;24.90;84.30;;;;;;4932674;28;20510;-88
2022/08/15 10:01:12;;;;;;;2.43;2.27;;;24.90;84.00;;;;;;4924318;28;20548;-86
2022/08/15 10:03:43;;;;;;;2.50;2.30;;;25.10;83.60;;;;;;4924757;28;20971;-87
2022/08/15 10:06:12;;;;;;;2.23;2.13;;;25.40;82.40;;;;;;4912309;28;20573;-88
2022/08/15 10:08:53;;;;;;;2.33;2.13;;;24.90;81.70;;;;;;4926716;28;20959;-86
2022/08/15 10:11:42;;;;;;;2.37;2.10;;;24.80;83.10;;;;;;4909743;28;20481;-86
2022/08/15 10:14:25;;;;;;;2.00;1.90;;;25.00;83.90;;;;;;4907033;28;20533;-86
2022/08/15 10:17:26;;;;;;;2.60;2.40;;;25.00;82.50;;;;;;4911185;28;20485;-87
2022/08/15 10:19:52;;;;;;;2.63;2.43;;;25.50;81.70;;;;;;4914873;28;21002;-88
2022/08/15 10:22:24;;;;;;;2.47;2.27;;;25.90;79.10;;;;;;4928105;28;20446;-87
2022/08/15 10:25:28;;;;;;;2.27;2.17;;;25.60;77.40;;;;;;4907843;28;20203;-87
2022/08/15 10:27:56;;;;;;;2.27;2.07;;;25.70;80.30;;;;;;4906184;28;20525;-87
2022/08/15 10:30:26;;;;;;;2.87;2.77;;;26.40;78.10;;;;;;4910117;28;20526;-88
2022/08/15 10:32:53;;;;;;;2.40;2.20;;;27.00;74.70;;;;;;4927809;28;20877;-87
2022/08/15 10:35:40;;;;;;;2.43;2.23;;;27.20;75.30;;;;;;4912581;28;20470;-86
2022/08/15 10:38:09;;;;;;;3.07;2.53;;;27.30;73.10;;;;;;4910562;28;20584;-87
2022/08/15 10:40:44;;;;;;;2.40;2.20;;;26.90;72.80;;;;;;4909376;28;20456;-86
2022/08/15 10:43:43;;;;;;;2.73;2.10;;;27.00;73.60;;;;;;4911493;28;20814;-87
2022/08/15 10:47:07;;;;;;;2.87;2.20;;;27.20;72.40;;;;;;4926251;28;20442;-87
2022/08/15 10:50:41;;;;;;;2.70;2.50;;;27.10;71.40;;;;;;4875408;29;20564;-87
2022/08/15 10:53:37;;;;;;;2.60;2.30;;;27.50;70.00;;;;;;4857291;29;20440;-88
2022/08/15 10:56:13;;;;;;;2.43;2.33;;;27.70;66.90;;;;;;4907904;28;20864;-86
2022/08/15 10:58:39;;;;;;;2.70;2.60;;;27.40;67.80;;;;;;4911917;28;20446;-87
2022/08/15 11:01:31;;;;;;;2.20;2.10;;;26.90;67.40;;;;;;4911906;28;20469;-89
2022/08/15 11:04:13;;;;;;;2.23;2.13;;;27.10;66.70;;;;;;4939173;28;20189;-87
2022/08/15 11:06:47;;;;;;;2.47;2.37;;;27.20;67.10;;;;;;4927018;28;20473;-85
2022/08/15 11:09:17;;;;;;;2.80;2.60;;;27.60;66.30;;;;;;4932242;28;20434;-88
2022/08/15 11:11:52;;;;;;;2.60;2.40;;;27.50;66.30;;;;;;4910229;28;21021;-87
2022/08/15 11:14:24;;;;;;;3.00;2.70;;;27.40;64.70;;;;;;4930344;28;20791;-86
2022/08/15 11:16:51;;;;;;;2.87;2.37;;;26.90;66.70;;;;;;4907637;28;21118;-87
2022/08/15 11:19:28;;;;;;;2.23;2.03;;;27.40;66.40;;;;;;4917217;28;20438;-86
2022/08/15 11:21:57;;;;;;;2.23;2.13;;;27.40;65.00;;;;;;4915643;28;20457;-86
2022/08/15 11:24:59;;;;;;;2.50;2.30;;;27.30;64.70;;;;;;4920464;28;20477;-86
2022/08/15 11:27:26;;;;;;;3.07;2.80;;;27.40;64.90;;;;;;4929431;28;20453;-86
2022/08/15 11:29:55;;;;;;;3.03;2.83;;;26.70;66.30;;;;;;4911670;28;20438;-85
2022/08/15 11:32:32;;;;;;;2.37;2.27;;;26.80;69.20;;;;;;4915581;28;21339;-87
2022/08/15 11:35:19;;;;;;;3.60;2.37;;;27.40;65.90;;;;;;4914390;28;20525;-87
2022/08/15 11:37:45;;;;;;;2.87;2.67;;;28.00;64.10;;;;;;4912295;28;20589;-87
2022/08/15 11:40:28;;;;;;;2.63;2.50;;;27.90;63.30;;;;;;4928867;28;20452;-86
2022/08/15 11:42:55;;;;;;;3.20;3.00;;;28.00;61.80;;;;;;4927198;28;20597;-86
2022/08/15 11:45:26;;;;;;;2.83;2.67;;;28.00;62.90;;;;;;4914247;28;20980;-86
2022/08/15 11:48:05;;;;;;;;;;;;;;;;;;;;;
2022/08/15 11:50:38;;;;;;;2.97;2.77;;;28.60;63.30;;;;;;4930054;28;20958;-88
2022/08/15 11:53:07;;;;;;;3.37;3.07;;;29.00;59.50;;;;;;4911693;28;21363;-87
2022/08/15 11:55:32;;;;;;;4.30;2.80;;;28.20;61.40;;;;;;4927113;28;20463;-87
2022/08/15 11:58:18;;;;;;;3.40;3.03;;;28.20;62.00;;;;;;4925790;28;20454;-87
2022/08/15 12:00:48;;;;;;;3.40;2.77;;;28.40;62.70;;;;;;4926173;28;20272;-88
2022/08/15 12:03:35;;;;;;;3.60;3.30;;;28.80;60.20;;;;;;4929265;28;20447;-87
2022/08/15 12:06:13;;;;;;;2.90;2.70;;;28.70;60.10;;;;;;4926837;28;21661;-87
2022/08/15 12:08:41;;;;;;;3.10;2.90;;;29.00;58.90;;;;;;4912051;28;20435;-88
2022/08/15 12:11:23;;;;;;;3.27;2.70;;;29.00;59.20;;;;;;4912839;28;20544;-87
2022/08/15 12:13:57;;;;;;;3.00;2.60;;;28.40;59.00;;;;;;4923084;28;20501;-86
2022/08/15 12:16:46;;;;;;;2.73;2.53;;;28.90;60.80;;;;;;4929044;28;20492;-86
2022/08/15 12:19:47;;;;;;;3.00;2.80;;;29.80;57.40;;;;;;4923218;28;20463;-86
2022/08/15 12:22:33;;;;;;;2.90;2.70;;;29.70;57.60;;;;;;4926478;28;21264;-87
2022/08/15 12:25:00;;;;;;;2.83;2.70;;;29.70;57.50;;;;;;4908349;28;20688;-87
2022/08/15 12:27:31;;;;;;;3.60;3.30;;;29.20;56.90;;;;;;4925248;28;20514;-87
2022/08/15 12:29:57;;;;;;;3.43;2.97;;;29.50;57.20;;;;;;4922304;28;20451;-87
2022/08/15 12:32:23;;;;;;;3.00;2.80;;;29.20;59.10;;;;;;4944142;28;20446;-87
2022/08/15 12:34:52;;;;;;;2.90;2.70;;;30.10;57.60;;;;;;4919020;28;20947;-87
2022/08/15 12:37:24;;;;;;;2.97;2.77;;;30.00;56.90;;;;;;4911080;28;20486;-86
2022/08/15 12:40:02;;;;;;;3.03;2.83;;;30.50;56.30;;;;;;4924278;28;20794;-88
2022/08/15 12:42:34;;;;;;;3.10;2.80;;;30.40;58.70;;;;;;4923667;28;20455;-87
2022/08/15 12:45:26;;;;;;;4.90;3.47;;;30.80;60.00;;;;;;4924193;28;20479;-87
2022/08/15 12:47:51;;;;;;;4.00;2.70;;;30.50;58.80;;;;;;4926351;28;20446;-88
2022/08/15 12:50:17;;;;;;;3.23;3.03;;;29.70;59.50;;;;;;4928602;28;20442;-87
2022/08/15 12:52:50;;;;;;;4.03;2.93;;;29.40;59.90;;;;;;4912883;28;20250;-86
2022/08/15 12:55:16;;;;;;;2.80;2.60;;;28.80;61.20;;;;;;4924848;28;20187;-87
2022/08/15 12:57:41;;;;;;;3.40;3.10;;;28.30;64.10;;;;;;4910234;28;20545;-87
2022/08/15 13:00:08;;;;;;;3.00;2.80;;;28.30;62.70;;;;;;4909427;28;24334;-86
2022/08/15 13:02:38;;;;;;;4.23;2.63;;;28.20;63.30;;;;;;4914242;28;20197;-87
2022/08/15 13:05:07;;;;;;;3.67;2.90;;;28.50;65.30;;;;;;4907563;28;20445;-87
2022/08/15 13:07:32;;;;;;;3.10;2.90;;;28.30;65.60;;;;;;4915150;28;20443;-89
2022/08/15 13:10:01;;;;;;;3.03;2.83;;;28.30;64.80;;;;;;4907506;28;20435;-88
2022/08/15 13:12:26;;;;;;;3.17;2.93;;;28.10;66.30;;;;;;4907167;28;20214;-87
2022/08/15 13:14:52;;;;;;;3.13;2.93;;;28.00;64.70;;;;;;4905326;28;20900;-87
2022/08/15 13:17:18;;;;;;;3.33;3.13;;;27.80;65.00;;;;;;4907623;28;20186;-87
2022/08/15 13:25:25;;;;;;;3.90;3.53;;;30.40;81.10;;;;;;4925895;28;20512;-88
2022/08/15 13:27:51;;;;;;;5.00;3.60;;;30.50;85.80;;;;;;4913864;28;20545;-87
2022/08/15 13:30:19;;;;;;;3.50;3.20;;;30.60;74.10;;;;;;4915220;28;20558;-88
2022/08/15 13:32:44;;;;;;;2.97;2.77;;;30.90;77.00;;;;;;4927457;28;21618;-89
2022/08/15 13:35:15;;;;;;;3.30;3.10;;;30.90;72.70;;;;;;4916481;28;20537;-88
2022/08/15 13:37:53;;;;;;;;;;;;;;;;;;;;;
2022/08/15 13:40:39;;;;;;;3.23;3.00;;;29.50;69.70;;;;;;4931187;28;20921;-88
2022/08/15 13:43:05;;;;;;;3.60;3.40;;;29.10;74.40;;;;;;4920277;28;20777;-87
2022/08/15 13:45:32;;;;;;;3.07;2.87;;;28.70;71.40;;;;;;4931219;28;20466;-89